Cuthbert, Texas
Current Conditions -  °F | °C
As of 8:15 AM on Tuesday 27 Jan 2015 (Local Time) from KSWW Reporting Station
Clear Clear  
Wind Chill: 40°   Ceiling: Unl
Heat Index: 45°   Visibility: 10mi
Dew Point: 35°   Wind: 10mph
Humidity: 66%   Direction: 230°SW
Pressure: 30.26"   Gusts: NA
Location:  32.4169°N, 100.857°W
Report Text: KSWW 271415Z AUTO 23009KT 10SM CLR 07/02 A3026 RMK AO2 T00740015
Loading
Personal Weather Stations






























Interactive Weather Map New forecast layout! Learn more

10-Day Weather Forecast

Advertisements
Track Severe Weather on mobile